メインページ
METAR-TAF:

METAR-TAF

空港 :

Oswego County Airport

フルトン, ニューヨーク, アメリカ合衆国

緯度: 43-21-03N, 経度: 076-23-17W, 海抜: 145m

現時点の気象観測

当レポートは9分前の20:54(UTC)に作成
西/北西の風 17kt、最大21ktの突風を伴う
気温 -6°C
湿度 53%
気圧 1031 hPa
視程: 12.9km
高度4200ftの雲は散在している
高度5000ftの曇り

METAR: KFZY 202054Z AUTO 30017G21KT 8SM SCT042 OVC050 M06/M14 A3046 RMK AO2 SLP324 60000 T10611144 55004

時間: 16:03 (21:03 UTC)


TAF: 見つかりません

4,000以上の空港の気象観測と天気予報(METAR報とTAF報)

利用可能な観測所は地図上に黄色い丸と赤い丸で示す。

丸の上にカーソルを重ねると観測所名を参照できる。

次にクリックすると気象観測と天気予報を参照できる。

マップの切り替え:黒色「×」印の緑ボタンをクリックして拡大、「-」印の緑ボタンをクリックして縮小、緑色の三角印をクリックして隣りの地図に切り替え


METAR-TAF: